sensor_id;sensor_type;location;lat;lon;timestamp;pressure;altitude;pressure_sealevel;temperature;humidity
63088;BME280;49173;43.164;27.786;2024-02-21T00:10:55;101274.13;;;5.30;91.57
63088;BME280;49173;43.164;27.786;2024-02-21T00:13:21;101284.66;;;5.35;91.23
63088;BME280;49173;43.164;27.786;2024-02-21T00:15:46;101286.44;;;5.34;91.19
63088;BME280;49173;43.164;27.786;2024-02-21T00:18:12;101281.91;;;5.39;90.63
63088;BME280;49173;43.164;27.786;2024-02-21T00:20:37;101281.03;;;5.39;90.34
63088;BME280;49173;43.164;27.786;2024-02-21T00:23:03;101281.03;;;5.39;90.07
63088;BME280;49173;43.164;27.786;2024-02-21T00:25:28;101282.97;;;5.31;90.02
63088;BME280;49173;43.164;27.786;2024-02-21T00:27:54;101277.69;;;5.28;90.25
63088;BME280;49173;43.164;27.786;2024-02-21T00:30:19;101275.19;;;5.21;90.71
63088;BME280;49173;43.164;27.786;2024-02-21T00:32:46;101268.06;;;5.22;90.89
63088;BME280;49173;43.164;27.786;2024-02-21T00:35:11;101270.63;;;5.27;90.80
63088;BME280;49173;43.164;27.786;2024-02-21T00:37:37;101271.47;;;5.30;90.55
63088;BME280;49173;43.164;27.786;2024-02-21T00:40:03;101268.75;;;5.32;90.49
63088;BME280;49173;43.164;27.786;2024-02-21T00:42:29;101267.06;;;5.28;90.20
63088;BME280;49173;43.164;27.786;2024-02-21T00:44:55;101271.59;;;5.21;90.35
63088;BME280;49173;43.164;27.786;2024-02-21T00:47:20;101274.38;;;5.16;90.29
63088;BME280;49173;43.164;27.786;2024-02-21T00:49:46;101269.13;;;5.12;90.76
63088;BME280;49173;43.164;27.786;2024-02-21T00:52:12;101261.16;;;5.12;90.97
63088;BME280;49173;43.164;27.786;2024-02-21T00:54:38;101262.97;;;5.10;90.97
63088;BME280;49173;43.164;27.786;2024-02-21T00:57:03;101268.47;;;5.01;91.71
63088;BME280;49173;43.164;27.786;2024-02-21T00:59:29;101260.47;;;5.01;92.28
63088;BME280;49173;43.164;27.786;2024-02-21T01:01:54;101262.13;;;5.06;92.35
63088;BME280;49173;43.164;27.786;2024-02-21T01:04:20;101261.19;;;5.10;92.47
63088;BME280;49173;43.164;27.786;2024-02-21T01:06:45;101265.59;;;5.11;92.61
63088;BME280;49173;43.164;27.786;2024-02-21T01:09:11;101255.88;;;5.09;93.21
63088;BME280;49173;43.164;27.786;2024-02-21T01:11:36;101255.81;;;5.12;93.34
63088;BME280;49173;43.164;27.786;2024-02-21T01:14:02;101253.19;;;5.10;93.58
63088;BME280;49173;43.164;27.786;2024-02-21T01:16:27;101262.03;;;5.12;93.45
63088;BME280;49173;43.164;27.786;2024-02-21T01:18:53;101246.84;;;5.17;93.45
63088;BME280;49173;43.164;27.786;2024-02-21T01:21:18;101252.09;;;5.20;93.15
63088;BME280;49173;43.164;27.786;2024-02-21T01:23:44;101248.63;;;5.17;93.49
63088;BME280;49173;43.164;27.786;2024-02-21T01:26:09;101237.00;;;5.21;93.62
63088;BME280;49173;43.164;27.786;2024-02-21T01:28:38;101243.25;;;5.21;93.67
63088;BME280;49173;43.164;27.786;2024-02-21T01:31:03;101244.88;;;5.29;93.47
63088;BME280;49173;43.164;27.786;2024-02-21T01:33:29;101237.88;;;5.23;93.77
63088;BME280;49173;43.164;27.786;2024-02-21T01:36:01;101237.81;;;5.26;93.65
63088;BME280;49173;43.164;27.786;2024-02-21T01:38:26;101237.78;;;5.28;93.67
63088;BME280;49173;43.164;27.786;2024-02-21T01:40:53;101235.25;;;5.21;93.69
63088;BME280;49173;43.164;27.786;2024-02-21T01:43:21;101241.41;;;5.23;93.80
63088;BME280;49173;43.164;27.786;2024-02-21T01:45:48;101243.13;;;5.26;93.83
63088;BME280;49173;43.164;27.786;2024-02-21T01:48:14;101243.13;;;5.26;93.47
63088;BME280;49173;43.164;27.786;2024-02-21T01:50:40;101238.66;;;5.30;93.38
63088;BME280;49173;43.164;27.786;2024-02-21T01:53:05;101237.75;;;5.31;93.35
63088;BME280;49173;43.164;27.786;2024-02-21T01:55:31;101245.66;;;5.34;93.11
63088;BME280;49173;43.164;27.786;2024-02-21T01:57:57;101243.06;;;5.31;93.12
63088;BME280;49173;43.164;27.786;2024-02-21T02:00:23;101241.31;;;5.28;92.85
63088;BME280;49173;43.164;27.786;2024-02-21T02:02:48;101244.09;;;5.23;92.92
63088;BME280;49173;43.164;27.786;2024-02-21T02:05:15;101247.72;;;5.18;93.09
63088;BME280;49173;43.164;27.786;2024-02-21T02:07:42;101239.84;;;5.12;93.18
63088;BME280;49173;43.164;27.786;2024-02-21T02:10:07;101243.41;;;5.12;93.55
63088;BME280;49173;43.164;27.786;2024-02-21T02:12:35;101245.06;;;5.18;93.50
63088;BME280;49173;43.164;27.786;2024-02-21T02:15:01;101247.59;;;5.26;93.52
63088;BME280;49173;43.164;27.786;2024-02-21T02:17:30;101248.38;;;5.31;93.06
63088;BME280;49173;43.164;27.786;2024-02-21T02:19:55;101249.28;;;5.28;92.81
63088;BME280;49173;43.164;27.786;2024-02-21T02:22:22;101248.50;;;5.24;93.11
63088;BME280;49173;43.164;27.786;2024-02-21T02:24:48;101260.06;;;5.23;93.41
63088;BME280;49173;43.164;27.786;2024-02-21T02:27:14;101258.22;;;5.26;93.13
63088;BME280;49173;43.164;27.786;2024-02-21T02:29:39;101252.97;;;5.21;92.92
63088;BME280;49173;43.164;27.786;2024-02-21T02:32:05;101258.31;;;5.22;92.87
63088;BME280;49173;43.164;27.786;2024-02-21T02:34:30;101253.94;;;5.18;93.09
63088;BME280;49173;43.164;27.786;2024-02-21T02:36:58;101257.56;;;5.13;93.31
63088;BME280;49173;43.164;27.786;2024-02-21T02:39:23;101259.56;;;5.02;93.55
63088;BME280;49173;43.164;27.786;2024-02-21T02:41:49;101272.00;;;5.00;94.22
63088;BME280;49173;43.164;27.786;2024-02-21T02:44:14;101268.47;;;4.99;93.95
63088;BME280;49173;43.164;27.786;2024-02-21T02:46:40;101263.16;;;4.97;94.34
63088;BME280;49173;43.164;27.786;2024-02-21T02:49:06;101258.69;;;5.01;93.86
63088;BME280;49173;43.164;27.786;2024-02-21T02:51:34;101250.78;;;4.96;93.91
63088;BME280;49173;43.164;27.786;2024-02-21T02:54:00;101259.69;;;4.92;94.50
63088;BME280;49173;43.164;27.786;2024-02-21T02:56:25;101251.63;;;4.99;94.40
63088;BME280;49173;43.164;27.786;2024-02-21T02:58:51;101254.22;;;5.03;94.38
63088;BME280;49173;43.164;27.786;2024-02-21T03:01:16;101255.06;;;5.05;93.91
63088;BME280;49173;43.164;27.786;2024-02-21T03:03:42;101264.91;;;4.99;93.74
63088;BME280;49173;43.164;27.786;2024-02-21T03:06:08;101246.41;;;4.94;93.83
63088;BME280;49173;43.164;27.786;2024-02-21T03:08:34;101251.66;;;4.97;93.99
63088;BME280;49173;43.164;27.786;2024-02-21T03:10:59;101262.28;;;4.97;93.81
63088;BME280;49173;43.164;27.786;2024-02-21T03:13:25;101260.50;;;4.97;93.92
63088;BME280;49173;43.164;27.786;2024-02-21T03:15:51;101260.56;;;4.94;94.15
63088;BME280;49173;43.164;27.786;2024-02-21T03:18:16;101252.53;;;4.97;93.77
63088;BME280;49173;43.164;27.786;2024-02-21T03:20:42;101248.88;;;5.03;94.01
63088;BME280;49173;43.164;27.786;2024-02-21T03:23:07;101243.53;;;5.05;94.08
63088;BME280;49173;43.164;27.786;2024-02-21T03:25:33;101251.47;;;5.08;93.94
63088;BME280;49173;43.164;27.786;2024-02-21T03:27:58;101255.94;;;5.06;93.98
63088;BME280;49173;43.164;27.786;2024-02-21T03:30:24;101252.34;;;5.08;93.77
63088;BME280;49173;43.164;27.786;2024-02-21T03:32:49;101260.34;;;5.08;94.18
63088;BME280;49173;43.164;27.786;2024-02-21T03:35:15;101252.34;;;5.08;94.37
63088;BME280;49173;43.164;27.786;2024-02-21T03:37:40;101253.22;;;5.07;94.59
63088;BME280;49173;43.164;27.786;2024-02-21T03:40:07;101246.16;;;5.06;94.95
63088;BME280;49173;43.164;27.786;2024-02-21T03:42:32;101253.22;;;5.07;94.90
63088;BME280;49173;43.164;27.786;2024-02-21T03:44:58;101250.72;;;5.00;95.50
63088;BME280;49173;43.164;27.786;2024-02-21T03:47:23;101264.00;;;5.00;95.81
63088;BME280;49173;43.164;27.786;2024-02-21T03:49:49;101256.06;;;4.98;95.83
63088;BME280;49173;43.164;27.786;2024-02-21T03:52:15;101261.41;;;4.96;96.08
63088;BME280;49173;43.164;27.786;2024-02-21T03:54:40;101254.25;;;5.00;96.38
63088;BME280;49173;43.164;27.786;2024-02-21T03:57:06;101271.13;;;4.99;96.09
63088;BME280;49173;43.164;27.786;2024-02-21T03:59:31;101258.72;;;4.98;96.27
63088;BME280;49173;43.164;27.786;2024-02-21T04:01:57;101255.16;;;5.01;96.54
63088;BME280;49173;43.164;27.786;2024-02-21T04:04:23;101251.59;;;5.02;96.54
63088;BME280;49173;43.164;27.786;2024-02-21T04:06:48;101248.81;;;5.06;96.26
63088;BME280;49173;43.164;27.786;2024-02-21T04:09:14;101248.84;;;5.05;96.36
63088;BME280;49173;43.164;27.786;2024-02-21T04:11:40;101239.09;;;5.05;96.58
63088;BME280;49173;43.164;27.786;2024-02-21T04:14:05;101242.53;;;5.12;96.22
63088;BME280;49173;43.164;27.786;2024-02-21T04:16:31;101254.00;;;5.14;96.06
63088;BME280;49173;43.164;27.786;2024-02-21T04:18:56;101246.00;;;5.14;95.77
63088;BME280;49173;43.164;27.786;2024-02-21T04:21:23;101241.66;;;5.11;95.61
63088;BME280;49173;43.164;27.786;2024-02-21T04:23:48;101240.72;;;5.12;95.53
63088;BME280;49173;43.164;27.786;2024-02-21T04:26:14;101247.75;;;5.16;95.37
63088;BME280;49173;43.164;27.786;2024-02-21T04:28:39;101243.53;;;5.05;95.40
63088;BME280;49173;43.164;27.786;2024-02-21T04:31:05;101252.47;;;5.02;95.99
63088;BME280;49173;43.164;27.786;2024-02-21T04:33:30;101244.59;;;4.96;96.32
63088;BME280;49173;43.164;27.786;2024-02-21T04:35:56;101250.88;;;4.90;96.78
63088;BME280;49173;43.164;27.786;2024-02-21T04:38:23;101248.19;;;4.92;96.88
63088;BME280;49173;43.164;27.786;2024-02-21T04:40:49;101251.66;;;4.97;96.91
63088;BME280;49173;43.164;27.786;2024-02-21T04:43:14;101252.66;;;4.90;97.07
63088;BME280;49173;43.164;27.786;2024-02-21T04:45:40;101262.47;;;4.88;97.20
63088;BME280;49173;43.164;27.786;2024-02-21T04:48:05;101262.47;;;4.88;97.41
63088;BME280;49173;43.164;27.786;2024-02-21T04:50:31;101258.94;;;4.86;97.60
63088;BME280;49173;43.164;27.786;2024-02-21T04:52:57;101254.59;;;4.82;97.86
63088;BME280;49173;43.164;27.786;2024-02-21T04:55:22;101258.03;;;4.88;98.00
63088;BME280;49173;43.164;27.786;2024-02-21T04:57:48;101259.69;;;4.92;97.88
63088;BME280;49173;43.164;27.786;2024-02-21T05:00:13;101256.09;;;4.96;97.55
63088;BME280;49173;43.164;27.786;2024-02-21T05:02:39;101256.91;;;5.00;97.53
63088;BME280;49173;43.164;27.786;2024-02-21T05:05:04;101267.69;;;4.94;97.54
63088;BME280;49173;43.164;27.786;2024-02-21T05:07:30;101259.75;;;4.91;97.93
63088;BME280;49173;43.164;27.786;2024-02-21T05:09:56;101263.31;;;4.90;98.11
63088;BME280;49173;43.164;27.786;2024-02-21T05:12:21;101254.38;;;4.92;98.05
63088;BME280;49173;43.164;27.786;2024-02-21T05:14:47;101265.09;;;4.89;98.41
63088;BME280;49173;43.164;27.786;2024-02-21T05:17:12;101272.22;;;4.87;98.69
63088;BME280;49173;43.164;27.786;2024-02-21T05:19:38;101270.38;;;4.91;98.76
63088;BME280;49173;43.164;27.786;2024-02-21T05:22:03;101278.25;;;4.97;98.33
63088;BME280;49173;43.164;27.786;2024-02-21T05:24:30;101286.16;;;5.00;98.24
63088;BME280;49173;43.164;27.786;2024-02-21T05:26:56;101287.03;;;5.02;98.06
63088;BME280;49173;43.164;27.786;2024-02-21T05:29:21;101288.94;;;4.95;98.13
63088;BME280;49173;43.164;27.786;2024-02-21T05:34:19;101296.97;;;4.91;98.19
63088;BME280;49173;43.164;27.786;2024-02-21T05:36:44;101304.06;;;4.92;98.45
63088;BME280;49173;43.164;27.786;2024-02-21T05:39:10;101306.69;;;4.95;98.57
63088;BME280;49173;43.164;27.786;2024-02-21T05:41:35;101306.69;;;4.95;98.76
63088;BME280;49173;43.164;27.786;2024-02-21T05:44:01;101311.84;;;5.04;98.63
63088;BME280;49173;43.164;27.786;2024-02-21T05:46:27;101312.69;;;5.06;98.42
63088;BME280;49173;43.164;27.786;2024-02-21T05:48:53;101314.47;;;5.06;98.47
63088;BME280;49173;43.164;27.786;2024-02-21T05:51:18;101311.69;;;5.12;98.45
63088;BME280;49173;43.164;27.786;2024-02-21T05:53:44;101313.41;;;5.14;98.20
63088;BME280;49173;43.164;27.786;2024-02-21T05:56:12;101317.84;;;5.14;98.14
63088;BME280;49173;43.164;27.786;2024-02-21T05:58:38;101321.44;;;5.13;97.75
63088;BME280;49173;43.164;27.786;2024-02-21T06:01:03;101318.00;;;5.08;97.63
63088;BME280;49173;43.164;27.786;2024-02-21T06:03:29;101318.97;;;5.02;97.61
63088;BME280;49173;43.164;27.786;2024-02-21T06:05:55;101332.31;;;4.99;97.43
63088;BME280;49173;43.164;27.786;2024-02-21T06:08:21;101335.06;;;4.94;97.48
63088;BME280;49173;43.164;27.786;2024-02-21T06:10:46;101330.66;;;4.93;97.52
63088;BME280;49173;43.164;27.786;2024-02-21T06:13:13;101335.06;;;4.93;97.13
63088;BME280;49173;43.164;27.786;2024-02-21T06:15:39;101339.38;;;5.00;96.65
63088;BME280;49173;43.164;27.786;2024-02-21T06:18:04;101334.94;;;5.02;96.54
63088;BME280;49173;43.164;27.786;2024-02-21T06:20:30;101344.63;;;5.05;96.41
63088;BME280;49173;43.164;27.786;2024-02-21T06:22:55;101345.50;;;5.05;96.70
63088;BME280;49173;43.164;27.786;2024-02-21T06:25:21;101336.56;;;5.11;96.98
63088;BME280;49173;43.164;27.786;2024-02-21T06:27:46;101341.84;;;5.12;96.94
63088;BME280;49173;43.164;27.786;2024-02-21T06:30:12;101343.66;;;5.10;97.10
63088;BME280;49173;43.164;27.786;2024-02-21T06:32:38;101332.13;;;5.10;97.09
63088;BME280;49173;43.164;27.786;2024-02-21T06:35:04;101325.94;;;5.09;97.19
63088;BME280;49173;43.164;27.786;2024-02-21T06:37:29;101323.16;;;5.17;97.24
63088;BME280;49173;43.164;27.786;2024-02-21T06:39:55;101327.56;;;5.18;97.23
63088;BME280;49173;43.164;27.786;2024-02-21T06:42:21;101324.78;;;5.24;97.47
63088;BME280;49173;43.164;27.786;2024-02-21T06:44:47;101323.75;;;5.33;97.49
63088;BME280;49173;43.164;27.786;2024-02-21T06:47:12;101324.63;;;5.33;97.62
63088;BME280;49173;43.164;27.786;2024-02-21T06:49:38;101313.91;;;5.38;97.97
63088;BME280;49173;43.164;27.786;2024-02-21T06:52:06;101312.81;;;5.48;98.15
63088;BME280;49173;43.164;27.786;2024-02-21T06:54:31;101320.63;;;5.59;98.46
63088;BME280;49173;43.164;27.786;2024-02-21T06:56:57;101314.28;;;5.64;98.58
63088;BME280;49173;43.164;27.786;2024-02-21T06:59:23;101318.59;;;5.71;98.90
63088;BME280;49173;43.164;27.786;2024-02-21T07:01:48;101317.56;;;5.78;99.17
63088;BME280;49173;43.164;27.786;2024-02-21T07:04:14;101314.78;;;5.83;99.07
63088;BME280;49173;43.164;27.786;2024-02-21T07:06:40;101317.34;;;5.89;99.04
63088;BME280;49173;43.164;27.786;2024-02-21T07:09:06;101316.41;;;5.93;99.07
63088;BME280;49173;43.164;27.786;2024-02-21T07:11:32;101322.50;;;6.00;99.29
63088;BME280;49173;43.164;27.786;2024-02-21T07:13:58;101321.44;;;6.07;99.49
63088;BME280;49173;43.164;27.786;2024-02-21T07:16:23;101325.69;;;6.16;99.89
63088;BME280;49173;43.164;27.786;2024-02-21T07:18:48;101319.31;;;6.23;100.00
63088;BME280;49173;43.164;27.786;2024-02-21T07:21:14;101320.88;;;6.33;100.00
63088;BME280;49173;43.164;27.786;2024-02-21T07:23:41;101312.63;;;6.44;99.64
63088;BME280;49173;43.164;27.786;2024-02-21T07:26:07;101320.38;;;6.56;99.65
63088;BME280;49173;43.164;27.786;2024-02-21T07:28:33;101321.00;;;6.66;99.13
63088;BME280;49173;43.164;27.786;2024-02-21T07:30:59;101324.28;;;6.78;99.00
63088;BME280;49173;43.164;27.786;2024-02-21T07:33:24;101331.22;;;6.85;98.33
63088;BME280;49173;43.164;27.786;2024-02-21T07:35:50;101325.88;;;6.85;97.35
63088;BME280;49173;43.164;27.786;2024-02-21T07:38:15;101326.66;;;6.89;95.93
63088;BME280;49173;43.164;27.786;2024-02-21T07:40:46;101329.28;;;6.92;95.04
63088;BME280;49173;43.164;27.786;2024-02-21T07:43:12;101322.97;;;6.95;94.21
63088;BME280;49173;43.164;27.786;2024-02-21T07:45:37;101323.75;;;7.00;93.64
63088;BME280;49173;43.164;27.786;2024-02-21T07:48:05;101328.94;;;7.04;92.91
63088;BME280;49173;43.164;27.786;2024-02-21T07:50:30;101333.25;;;7.10;92.66
63088;BME280;49173;43.164;27.786;2024-02-21T07:52:56;101326.84;;;7.17;92.68
63088;BME280;49173;43.164;27.786;2024-02-21T07:55:22;101335.78;;;7.16;92.63
63088;BME280;49173;43.164;27.786;2024-02-21T07:57:47;101332.97;;;7.22;92.62
63088;BME280;49173;43.164;27.786;2024-02-21T08:00:13;101333.88;;;7.21;92.38
63088;BME280;49173;43.164;27.786;2024-02-21T08:02:45;101335.63;;;7.22;92.30
63088;BME280;49173;43.164;27.786;2024-02-21T08:05:11;101332.09;;;7.22;91.93
63088;BME280;49173;43.164;27.786;2024-02-21T08:07:37;101324.84;;;7.27;92.05
63088;BME280;49173;43.164;27.786;2024-02-21T08:10:03;101332.09;;;7.22;91.95
63088;BME280;49173;43.164;27.786;2024-02-21T08:12:29;101336.34;;;7.29;91.80
63088;BME280;49173;43.164;27.786;2024-02-21T08:14:54;101337.31;;;7.26;91.54
63088;BME280;49173;43.164;27.786;2024-02-21T08:17:20;101327.53;;;7.25;91.39
63088;BME280;49173;43.164;27.786;2024-02-21T08:19:47;101334.75;;;7.22;91.09
63088;BME280;49173;43.164;27.786;2024-02-21T08:22:14;101340.09;;;7.22;90.82
63088;BME280;49173;43.164;27.786;2024-02-21T08:24:40;101337.19;;;7.31;90.48
63088;BME280;49173;43.164;27.786;2024-02-21T08:27:05;101333.38;;;7.39;89.96
63088;BME280;49173;43.164;27.786;2024-02-21T08:29:31;101332.25;;;7.50;89.68
63088;BME280;49173;43.164;27.786;2024-02-21T08:31:57;101326.66;;;7.59;89.79
63088;BME280;49173;43.164;27.786;2024-02-21T08:34:22;101318.56;;;7.62;89.12
63088;BME280;49173;43.164;27.786;2024-02-21T08:36:48;101326.38;;;7.69;88.71
63088;BME280;49173;43.164;27.786;2024-02-21T08:39:13;101316.38;;;7.76;88.07
63088;BME280;49173;43.164;27.786;2024-02-21T08:41:42;101322.34;;;7.86;88.35
63088;BME280;49173;43.164;27.786;2024-02-21T08:44:07;101325.59;;;7.97;88.44
63088;BME280;49173;43.164;27.786;2024-02-21T08:46:33;101317.25;;;8.08;87.99
63088;BME280;49173;43.164;27.786;2024-02-21T08:48:58;101324.25;;;8.12;87.30
63088;BME280;49173;43.164;27.786;2024-02-21T08:51:24;101318.63;;;8.21;86.83
63088;BME280;49173;43.164;27.786;2024-02-21T08:53:50;101314.75;;;8.31;85.44
63088;BME280;49173;43.164;27.786;2024-02-21T08:56:16;101320.88;;;8.35;83.36
63088;BME280;49173;43.164;27.786;2024-02-21T08:58:43;101319.75;;;8.43;82.35
63088;BME280;49173;43.164;27.786;2024-02-21T09:01:08;101322.19;;;8.51;81.32
63088;BME280;49173;43.164;27.786;2024-02-21T09:03:37;101312.09;;;8.61;81.34
63088;BME280;49173;43.164;27.786;2024-02-21T09:06:04;101315.41;;;8.69;80.52
63088;BME280;49173;43.164;27.786;2024-02-21T09:08:29;101304.50;;;8.75;78.48
63088;BME280;49173;43.164;27.786;2024-02-21T09:10:55;101313.22;;;8.82;77.95
63088;BME280;49173;43.164;27.786;2024-02-21T09:13:20;101298.69;;;8.89;76.37
63088;BME280;49173;43.164;27.786;2024-02-21T09:15:47;101302.06;;;8.95;75.48
63088;BME280;49173;43.164;27.786;2024-02-21T09:18:12;101308.09;;;9.00;74.43
63088;BME280;49173;43.164;27.786;2024-02-21T09:20:38;101307.09;;;9.04;74.58
63088;BME280;49173;43.164;27.786;2024-02-21T09:23:03;101307.75;;;9.11;75.77
63088;BME280;49173;43.164;27.786;2024-02-21T09:25:29;101303.88;;;9.20;76.13
63088;BME280;49173;43.164;27.786;2024-02-21T09:27:55;101316.09;;;9.28;75.91
63088;BME280;49173;43.164;27.786;2024-02-21T09:30:23;101304.22;;;9.35;75.15
63088;BME280;49173;43.164;27.786;2024-02-21T09:32:48;101306.03;;;9.35;74.13
63088;BME280;49173;43.164;27.786;2024-02-21T09:35:14;101298.00;;;9.35;72.87
63088;BME280;49173;43.164;27.786;2024-02-21T09:37:40;101297.94;;;9.36;72.50
63088;BME280;49173;43.164;27.786;2024-02-21T09:40:06;101298.78;;;9.39;71.25
63088;BME280;49173;43.164;27.786;2024-02-21T09:42:38;101302.81;;;9.50;71.91
63088;BME280;49173;43.164;27.786;2024-02-21T09:45:08;101302.44;;;9.61;71.44
63088;BME280;49173;43.164;27.786;2024-02-21T09:47:37;101298.44;;;9.73;70.18
63088;BME280;49173;43.164;27.786;2024-02-21T09:50:05;101298.91;;;9.84;69.57
63088;BME280;49173;43.164;27.786;2024-02-21T09:52:31;101286.09;;;9.92;69.54
63088;BME280;49173;43.164;27.786;2024-02-21T09:54:58;101294.91;;;9.96;70.01
63088;BME280;49173;43.164;27.786;2024-02-21T09:57:24;101292.47;;;9.89;69.45
63088;BME280;49173;43.164;27.786;2024-02-21T09:59:52;101286.88;;;9.96;69.28
63088;BME280;49173;43.164;27.786;2024-02-21T10:02:17;101291.16;;;10.00;69.21
63088;BME280;49173;43.164;27.786;2024-02-21T10:04:43;101285.63;;;10.04;69.40
63088;BME280;49173;43.164;27.786;2024-02-21T10:07:09;101283.53;;;10.12;69.56
63088;BME280;49173;43.164;27.786;2024-02-21T10:09:36;101285.28;;;10.13;69.32
63088;BME280;49173;43.164;27.786;2024-02-21T10:12:08;101275.47;;;10.12;69.22
63088;BME280;49173;43.164;27.786;2024-02-21T10:14:35;101275.41;;;10.14;69.49
63088;BME280;49173;43.164;27.786;2024-02-21T10:17:00;101271.75;;;10.16;69.84
63088;BME280;49173;43.164;27.786;2024-02-21T10:19:26;101269.75;;;10.22;69.84
63088;BME280;49173;43.164;27.786;2024-02-21T10:22:01;101266.00;;;10.27;69.69
63088;BME280;49173;43.164;27.786;2024-02-21T10:24:29;101258.47;;;10.37;68.95
63088;BME280;49173;43.164;27.786;2024-02-21T10:27:04;101251.09;;;10.42;68.54
63088;BME280;49173;43.164;27.786;2024-02-21T10:29:33;101247.22;;;10.49;68.97
63088;BME280;49173;43.164;27.786;2024-02-21T10:34:31;101230.63;;;10.61;68.44
63088;BME280;49173;43.164;27.786;2024-02-21T10:37:03;101231.25;;;10.68;66.69
63088;BME280;49173;43.164;27.786;2024-02-21T10:39:30;101220.34;;;10.72;66.61
63088;BME280;49173;43.164;27.786;2024-02-21T10:41:56;101217.41;;;10.79;66.57
63088;BME280;49173;43.164;27.786;2024-02-21T10:44:24;101216.44;;;10.80;65.72
63088;BME280;49173;43.164;27.786;2024-02-21T10:46:51;101211.88;;;10.82;65.28
63088;BME280;49173;43.164;27.786;2024-02-21T10:49:22;101212.56;;;10.87;64.70
63088;BME280;49173;43.164;27.786;2024-02-21T10:51:50;101207.91;;;10.90;62.54
63088;BME280;49173;43.164;27.786;2024-02-21T10:54:25;101196.91;;;10.96;62.52
63088;BME280;49173;43.164;27.786;2024-02-21T10:56:55;101208.69;;;11.14;63.94
63088;BME280;49173;43.164;27.786;2024-02-21T10:59:22;101199.28;;;11.24;62.57
63088;BME280;49173;43.164;27.786;2024-02-21T11:01:48;101200.63;;;11.35;62.39
63088;BME280;49173;43.164;27.786;2024-02-21T11:04:14;101202.81;;;11.45;61.20
63088;BME280;49173;43.164;27.786;2024-02-21T11:06:40;101199.94;;;11.50;60.35
63088;BME280;49173;43.164;27.786;2024-02-21T11:09:07;101194.53;;;11.50;60.36
63088;BME280;49173;43.164;27.786;2024-02-21T11:11:37;101193.72;;;11.48;60.67
63088;BME280;49173;43.164;27.786;2024-02-21T11:14:03;101192.13;;;11.44;60.49
63088;BME280;49173;43.164;27.786;2024-02-21T11:16:34;101185.22;;;11.38;60.68
63088;BME280;49173;43.164;27.786;2024-02-21T11:19:06;101192.59;;;11.33;60.10
63088;BME280;49173;43.164;27.786;2024-02-21T11:21:32;101187.47;;;11.28;60.46
63088;BME280;49173;43.164;27.786;2024-02-21T11:23:59;101184.00;;;11.25;60.65
63088;BME280;49173;43.164;27.786;2024-02-21T11:26:27;101195.72;;;11.24;60.82
63088;BME280;49173;43.164;27.786;2024-02-21T11:28:59;101184.28;;;11.19;60.70
63088;BME280;49173;43.164;27.786;2024-02-21T11:31:25;101189.94;;;11.13;61.35
63088;BME280;49173;43.164;27.786;2024-02-21T11:33:52;101186.59;;;11.08;61.65
63088;BME280;49173;43.164;27.786;2024-02-21T11:36:27;101184.88;;;11.05;62.01
63088;BME280;49173;43.164;27.786;2024-02-21T11:38:53;101186.06;;;10.99;62.65
63088;BME280;49173;43.164;27.786;2024-02-21T11:41:19;101174.63;;;10.94;62.97
63088;BME280;49173;43.164;27.786;2024-02-21T11:43:46;101182.88;;;10.90;63.16
63088;BME280;49173;43.164;27.786;2024-02-21T11:46:13;101179.31;;;10.89;63.77
63088;BME280;49173;43.164;27.786;2024-02-21T11:48:39;101176.72;;;10.88;64.29
63088;BME280;49173;43.164;27.786;2024-02-21T11:51:05;101174.09;;;10.86;64.33
63088;BME280;49173;43.164;27.786;2024-02-21T11:53:31;101176.78;;;10.86;64.62
63088;BME280;49173;43.164;27.786;2024-02-21T11:55:58;101175.00;;;10.85;64.53
63088;BME280;49173;43.164;27.786;2024-02-21T11:58:24;101174.03;;;10.88;64.88
63088;BME280;49173;43.164;27.786;2024-02-21T12:00:50;101167.72;;;10.89;65.06
63088;BME280;49173;43.164;27.786;2024-02-21T12:03:16;101170.41;;;10.89;64.29
63088;BME280;49173;43.164;27.786;2024-02-21T12:05:41;101161.31;;;10.91;63.60
63088;BME280;49173;43.164;27.786;2024-02-21T12:08:07;101157.56;;;10.95;63.33
63088;BME280;49173;43.164;27.786;2024-02-21T12:10:34;101158.59;;;10.93;62.49
63088;BME280;49173;43.164;27.786;2024-02-21T12:13:10;101153.22;;;10.93;62.90
63088;BME280;49173;43.164;27.786;2024-02-21T12:15:38;101160.97;;;10.99;63.08
63088;BME280;49173;43.164;27.786;2024-02-21T12:18:04;101156.16;;;11.07;64.27
63088;BME280;49173;43.164;27.786;2024-02-21T12:20:30;101152.47;;;11.10;63.35
63088;BME280;49173;43.164;27.786;2024-02-21T12:22:59;101141.63;;;11.11;63.30
63088;BME280;49173;43.164;27.786;2024-02-21T12:25:25;101140.56;;;11.15;63.72
63088;BME280;49173;43.164;27.786;2024-02-21T12:27:54;101144.81;;;11.21;62.61
63088;BME280;49173;43.164;27.786;2024-02-21T12:30:21;101141.09;;;11.23;62.14
63088;BME280;49173;43.164;27.786;2024-02-21T12:32:47;101140.94;;;11.26;61.97
63088;BME280;49173;43.164;27.786;2024-02-21T12:35:13;101142.50;;;11.32;61.28
63088;BME280;49173;43.164;27.786;2024-02-21T12:37:39;101137.00;;;11.35;61.33
63088;BME280;49173;43.164;27.786;2024-02-21T12:40:05;101130.50;;;11.39;62.18
63088;BME280;49173;43.164;27.786;2024-02-21T12:42:32;101127.63;;;11.44;62.21
63088;BME280;49173;43.164;27.786;2024-02-21T12:44:59;101135.53;;;11.47;63.05
63088;BME280;49173;43.164;27.786;2024-02-21T12:47:24;101126.75;;;11.43;62.85
63088;BME280;49173;43.164;27.786;2024-02-21T12:49:52;101131.19;;;11.44;63.17
63088;BME280;49173;43.164;27.786;2024-02-21T12:52:17;101137.72;;;11.39;64.23
63088;BME280;49173;43.164;27.786;2024-02-21T12:54:43;101131.94;;;11.27;65.19
63088;BME280;49173;43.164;27.786;2024-02-21T12:57:08;101134.25;;;11.16;65.82